Time;durP1;ratioP1;P1;durP2;ratioP2;P2;SDS_P1;SDS_P2;PMS_P1;PMS_P2;Temp;Humidity;BMP_temperature;BMP_pressure;BME280_temperature;BME280_humidity;BME280_pressure;Samples;Min_cycle;Max_cycle;Signal;HPM_P1;HPM_P2
2023/09/09 00:01:01;;;;;;;0.30;0.30;;;;;;;22.81;65.66;101696.97;5012013;28;20034;-85
2023/09/09 00:03:27;;;;;;;0.88;0.85;;;;;;;22.84;64.15;101701.31;4992852;28;20113;-87
2023/09/09 00:05:54;;;;;;;1.20;1.13;;;;;;;22.83;64.48;101697.75;4988982;28;20034;-88
2023/09/09 00:08:20;;;;;;;0.22;0.22;;;;;;;22.82;64.25;101705.94;4990610;28;20447;-87
2023/09/09 00:10:46;;;;;;;0.93;0.75;;;;;;;22.79;65.02;101698.88;4989574;28;20381;-87
2023/09/09 00:13:13;;;;;;;0.50;0.50;;;;;;;22.78;64.85;101698.00;4982728;28;20076;-86
2023/09/09 00:15:39;;;;;;;0.85;0.85;;;;;;;22.79;64.43;101704.28;4989826;28;20118;-87
2023/09/09 00:18:05;;;;;;;0.75;0.75;;;;;;;22.77;65.21;101700.81;4988232;28;20502;-86
2023/09/09 00:23:07;;;;;;;1.23;1.20;;;;;;;22.75;65.69;101700.91;5091283;27;20568;-81
2023/09/09 00:25:34;;;;;;;2.78;2.20;;;;;;;22.73;65.06;101700.13;5070549;28;20044;-82
2023/09/09 00:28:01;;;;;;;0.25;0.25;;;;;;;22.72;64.46;101697.50;5069913;28;20040;-81
2023/09/09 00:30:27;;;;;;;1.48;1.02;;;;;;;22.70;65.25;101699.41;5067510;28;20512;-81
2023/09/09 00:32:53;;;;;;;4.18;2.08;;;;;;;22.68;65.96;101696.81;5065922;28;20025;-81
2023/09/09 00:35:20;;;;;;;0.30;0.30;;;;;;;22.68;65.84;101702.22;5065153;28;20045;-81
2023/09/09 00:37:46;;;;;;;1.70;1.60;;;;;;;22.68;65.32;101694.13;5072633;28;20025;-80
2023/09/09 00:40:12;;;;;;;1.08;1.08;;;;;;;22.66;65.56;101696.03;5083031;28;20115;-81
2023/09/09 00:42:38;;;;;;;0.82;0.82;;;;;;;22.66;65.29;101692.47;5072884;28;20031;-82
2023/09/09 00:45:05;;;;;;;4.30;2.67;;;;;;;22.64;65.51;101695.22;5080477;28;20043;-81
2023/09/09 00:47:32;;;;;;;0.20;0.20;;;;;;;22.60;65.25;101683.75;5052882;28;20033;-82
2023/09/09 00:49:59;;;;;;;1.23;0.75;;;;;;;22.59;64.96;101686.53;5082369;28;20033;-83
2023/09/09 00:52:26;;;;;;;0.55;0.55;;;;;;;22.55;64.96;101688.53;5075938;28;20032;-82
2023/09/09 00:54:52;;;;;;;0.70;0.70;;;;;;;22.52;65.00;101695.94;5071578;28;20627;-81
2023/09/09 00:57:19;;;;;;;1.23;1.13;;;;;;;22.49;65.11;101686.19;5074584;28;20029;-82
2023/09/09 00:59:46;;;;;;;0.50;0.50;;;;;;;22.48;64.83;101678.16;5067359;28;20525;-81
2023/09/09 01:02:12;;;;;;;0.70;0.43;;;;;;;22.45;65.18;101693.59;5072152;28;20046;-82
2023/09/09 01:04:39;;;;;;;0.25;0.25;;;;;;;22.42;64.75;101684.81;5075262;28;20545;-82
2023/09/09 01:07:06;;;;;;;0.47;0.47;;;;;;;22.39;65.07;101690.38;5074776;28;20035;-82
2023/09/09 01:09:33;;;;;;;0.35;0.35;;;;;;;22.35;65.11;101683.38;5062059;28;20037;-81
2023/09/09 01:12:00;;;;;;;0.52;0.52;;;;;;;22.32;64.81;101683.53;5070423;28;20096;-82
2023/09/09 01:14:26;;;;;;;5.63;2.95;;;;;;;22.29;64.80;101685.47;5072355;28;20039;-81
2023/09/09 01:16:54;;;;;;;0.13;0.13;;;;;;;22.27;65.05;101681.97;5069442;28;20025;-82
2023/09/09 01:19:25;;;;;;;0.43;0.43;;;;;;;22.26;65.32;101685.63;5069255;28;20025;-82
2023/09/09 01:21:53;;;;;;;4.78;1.85;;;;;;;22.22;65.55;101678.66;5066596;28;20776;-80
2023/09/09 01:24:20;;;;;;;5.07;1.05;;;;;;;22.20;65.42;101677.88;5070783;28;20049;-82
2023/09/09 01:26:46;;;;;;;2.10;0.60;;;;;;;22.15;65.37;101674.56;5078022;28;20032;-82
2023/09/09 01:29:13;;;;;;;0.43;0.43;;;;;;;22.12;64.81;101682.84;5063163;28;20036;-82
2023/09/09 01:31:39;;;;;;;1.27;1.25;;;;;;;22.08;65.09;101675.84;5067183;28;20025;-81
2023/09/09 01:34:05;;;;;;;0.20;0.20;;;;;;;22.04;65.17;101683.25;5052985;28;20560;-81
2023/09/09 01:36:31;;;;;;;2.67;1.80;;;;;;;22.01;65.10;101685.22;5056038;28;20036;-81
2023/09/09 01:38:57;;;;;;;0.40;0.40;;;;;;;21.98;65.46;101681.78;5048299;28;20029;-82
2023/09/09 01:41:26;;;;;;;7.03;2.40;;;;;;;21.93;65.19;101678.47;5054335;28;20071;-82
2023/09/09 01:43:53;;;;;;;0.15;0.15;;;;;;;21.90;65.32;101683.16;5049019;28;20055;-84
2023/09/09 01:46:19;;;;;;;0.50;0.40;;;;;;;21.86;65.40;101682.44;5053293;28;20075;-84
2023/09/09 01:48:45;;;;;;;1.27;0.60;;;;;;;21.82;65.44;101675.47;5050107;28;20382;-83
2023/09/09 01:51:11;;;;;;;0.98;0.93;;;;;;;21.80;64.82;101678.22;5051674;28;20032;-82
2023/09/09 01:53:38;;;;;;;0.75;0.75;;;;;;;21.76;65.36;101681.19;5054163;28;20623;-83
2023/09/09 01:56:04;;;;;;;1.23;0.40;;;;;;;21.74;65.24;101677.72;5047284;28;20414;-82
2023/09/09 01:58:30;;;;;;;0.30;0.30;;;;;;;21.70;65.27;101668.91;5048031;28;20040;-83
2023/09/09 02:00:56;;;;;;;0.35;0.35;;;;;;;21.69;65.31;101674.38;5046785;28;20640;-83
2023/09/09 02:03:24;;;;;;;0.20;0.20;;;;;;;21.64;65.19;101680.88;5054303;28;20032;-82
2023/09/09 02:05:50;;;;;;;0.30;0.30;;;;;;;21.62;65.49;101673.81;5047810;28;20505;-82
2023/09/09 02:08:17;;;;;;;0.77;0.77;;;;;;;21.59;65.25;101680.25;5049830;28;20034;-82
2023/09/09 02:10:43;;;;;;;0.20;0.20;;;;;;;21.58;66.21;101678.53;5053508;28;20396;-82
2023/09/09 02:13:09;;;;;;;1.98;1.88;;;;;;;21.57;66.82;101676.78;5052603;28;20044;-82
2023/09/09 02:15:35;;;;;;;2.70;1.40;;;;;;;21.58;67.31;101678.53;5049797;28;20059;-83
2023/09/09 02:18:02;;;;;;;1.58;1.48;;;;;;;21.57;66.80;101679.50;5043679;28;20097;-83
2023/09/09 02:20:28;;;;;;;0.35;0.35;;;;;;;21.57;66.55;101676.78;5050482;28;20142;-83
2023/09/09 02:22:54;;;;;;;4.15;1.60;;;;;;;21.56;66.52;101685.84;5055652;28;20045;-83
2023/09/09 02:25:20;;;;;;;0.63;0.63;;;;;;;21.54;66.55;101687.69;5055612;28;20111;-82
2023/09/09 02:27:46;;;;;;;1.20;1.20;;;;;;;21.52;67.33;101684.22;5055452;28;20033;-82
2023/09/09 02:30:12;;;;;;;2.08;1.98;;;;;;;21.50;67.68;101684.28;5050118;28;20036;-81
2023/09/09 02:32:39;;;;;;;2.50;2.30;;;;;;;21.49;67.38;101681.69;5048631;28;20479;-81
2023/09/09 02:35:07;;;;;;;0.60;0.60;;;;;;;21.47;67.37;101675.47;5045111;28;20057;-81
2023/09/09 02:37:35;;;;;;;3.47;2.40;;;;;;;21.48;67.39;101677.22;5057732;28;20071;-82
2023/09/09 02:40:01;;;;;;;0.43;0.43;;;;;;;21.46;67.99;101676.47;5056232;28;20025;-82
2023/09/09 02:42:27;;;;;;;3.85;1.35;;;;;;;21.45;67.62;101666.63;5055403;28;20036;-82
2023/09/09 02:44:53;;;;;;;0.70;0.70;;;;;;;21.45;67.97;101672.00;5053544;28;20029;-81
2023/09/09 02:47:19;;;;;;;1.80;1.70;;;;;;;21.43;68.49;101671.22;5054329;28;20070;-81
2023/09/09 02:49:46;;;;;;;0.55;0.55;;;;;;;21.44;68.15;101670.28;5050969;28;20025;-82
2023/09/09 02:52:13;;;;;;;1.48;1.38;;;;;;;21.44;67.51;101662.19;5054512;28;20086;-82
2023/09/09 02:54:40;;;;;;;0.43;0.43;;;;;;;21.43;67.85;101661.31;5054180;28;20060;-81
2023/09/09 02:57:06;;;;;;;1.75;1.65;;;;;;;21.41;68.29;101660.53;5054392;28;20036;-82
2023/09/09 02:59:33;;;;;;;0.20;0.20;;;;;;;21.39;67.95;101661.56;5053274;28;20052;-82
2023/09/09 03:01:59;;;;;;;0.47;0.47;;;;;;;21.36;68.04;101661.69;5053081;28;20029;-81
2023/09/09 03:04:25;;;;;;;1.08;0.98;;;;;;;21.32;67.94;101664.56;5068011;28;20029;-81
2023/09/09 03:06:51;;;;;;;0.30;0.30;;;;;;;21.29;67.17;101658.47;5052989;28;20029;-82
2023/09/09 03:09:18;;;;;;;3.72;1.83;;;;;;;21.24;67.03;101658.69;5057445;28;20051;-83
2023/09/09 03:11:44;;;;;;;0.90;0.85;;;;;;;21.19;67.88;101660.75;5045194;28;20029;-81
2023/09/09 03:14:10;;;;;;;2.28;1.08;;;;;;;21.16;67.39;101655.56;5049943;28;20550;-82
2023/09/09 03:16:38;;;;;;;1.67;1.60;;;;;;;21.13;67.32;101666.47;5052997;28;20494;-81
2023/09/09 03:19:04;;;;;;;3.60;1.17;;;;;;;21.08;67.50;101665.84;5056209;28;20440;-82
2023/09/09 03:21:31;;;;;;;0.80;0.80;;;;;;;21.05;67.03;101664.19;5056340;28;20071;-81
2023/09/09 03:23:57;;;;;;;1.40;1.30;;;;;;;21.02;67.00;101669.69;5053532;28;20040;-81
2023/09/09 03:26:23;;;;;;;0.85;0.68;;;;;;;21.00;67.00;101668.94;5055888;28;20033;-81
2023/09/09 03:28:50;;;;;;;4.10;2.13;;;;;;;20.98;66.75;101660.03;5057031;28;20079;-81
2023/09/09 03:31:16;;;;;;;2.45;1.38;;;;;;;20.97;67.24;101661.00;5056444;28;20025;-81
2023/09/09 03:33:43;;;;;;;0.73;0.73;;;;;;;20.96;66.84;101659.25;5053657;28;20052;-81
2023/09/09 03:36:09;;;;;;;0.10;0.10;;;;;;;20.95;67.20;101666.47;5058417;28;20027;-81
2023/09/09 03:38:36;;;;;;;1.15;1.15;;;;;;;20.95;67.08;101662.91;5057016;28;20041;-81
2023/09/09 03:41:05;;;;;;;0.60;0.60;;;;;;;20.95;67.25;101660.22;5055483;28;20063;-82
2023/09/09 03:43:32;;;;;;;0.35;0.35;;;;;;;20.91;67.47;101672.06;5055923;28;20029;-82
2023/09/09 03:45:58;;;;;;;0.63;0.57;;;;;;;20.88;67.36;101667.72;5050865;28;20044;-81
2023/09/09 03:48:25;;;;;;;0.10;0.10;;;;;;;20.84;67.21;101671.53;5051105;28;20021;-81
2023/09/09 03:50:51;;;;;;;1.10;1.10;;;;;;;20.81;67.12;101674.34;5055044;28;20029;-81
2023/09/09 03:53:17;;;;;;;1.05;1.05;;;;;;;20.78;67.04;101669.13;5054472;28;20605;-81
2023/09/09 03:55:43;;;;;;;0.63;0.40;;;;;;;20.74;66.79;101673.81;5051946;28;20498;-80
2023/09/09 03:58:09;;;;;;;0.10;0.10;;;;;;;20.69;66.93;101679.38;5053165;28;20580;-81
2023/09/09 04:00:37;;;;;;;0.80;0.80;;;;;;;20.66;67.07;101684.03;5053333;28;20119;-82
2023/09/09 04:03:03;;;;;;;0.77;0.77;;;;;;;20.63;66.70;101682.38;5052864;28;20025;-82
2023/09/09 04:05:29;;;;;;;1.00;1.00;;;;;;;20.60;66.89;101678.94;5050662;28;20037;-82
2023/09/09 04:07:58;;;;;;;0.73;0.73;;;;;;;20.54;66.90;101685.53;5053192;28;20032;-82
2023/09/09 04:10:24;;;;;;;0.20;0.20;;;;;;;20.53;66.75;101691.84;5047297;28;20048;-81
2023/09/09 04:12:50;;;;;;;1.75;1.45;;;;;;;20.53;66.81;101686.47;5050392;28;20395;-81
2023/09/09 04:15:16;;;;;;;3.63;1.10;;;;;;;20.51;67.05;101686.53;5048810;28;20025;-81
2023/09/09 04:17:42;;;;;;;0.65;0.65;;;;;;;20.49;66.99;101692.94;5050993;28;20037;-81
2023/09/09 04:20:08;;;;;;;1.83;1.73;;;;;;;20.47;67.05;101700.22;5052603;28;20029;-81
2023/09/09 04:22:35;;;;;;;0.20;0.20;;;;;;;20.46;67.18;101695.78;5054701;28;20029;-81
2023/09/09 04:25:01;;;;;;;1.02;1.02;;;;;;;20.46;67.24;101693.97;5055246;28;20037;-81
2023/09/09 04:27:27;;;;;;;5.63;2.63;;;;;;;20.48;67.36;101694.75;5052636;28;20096;-81
2023/09/09 04:29:53;;;;;;;0.98;0.98;;;;;;;20.48;67.96;101693.91;5054915;28;20024;-81
2023/09/09 04:32:19;;;;;;;1.33;1.05;;;;;;;20.49;67.60;101699.19;5053738;28;20086;-81
2023/09/09 04:34:46;;;;;;;4.47;1.20;;;;;;;20.48;67.71;101696.59;5054147;28;20029;-80
2023/09/09 04:37:14;;;;;;;0.60;0.60;;;;;;;20.46;67.97;101696.66;5052437;28;20025;-80
2023/09/09 04:39:40;;;;;;;1.00;1.00;;;;;;;20.46;67.98;101701.16;5055284;28;20025;-81
2023/09/09 04:42:06;;;;;;;0.28;0.28;;;;;;;20.46;67.85;101696.66;5053188;28;20029;-81
2023/09/09 04:44:32;;;;;;;0.10;0.10;;;;;;;20.44;68.07;101695.00;5047500;28;20037;-81
2023/09/09 04:46:58;;;;;;;1.00;1.00;;;;;;;20.44;67.60;101701.25;5042153;28;20601;-80
2023/09/09 04:49:25;;;;;;;5.68;2.70;;;;;;;20.42;67.17;101697.75;5038680;28;20113;-79
2023/09/09 04:51:51;;;;;;;1.23;0.65;;;;;;;20.41;67.17;101703.22;5056216;28;20021;-79
2023/09/09 04:54:18;;;;;;;0.73;0.73;;;;;;;20.39;67.26;101699.69;5045984;28;20490;-81
2023/09/09 04:56:46;;;;;;;0.73;0.73;;;;;;;20.36;67.63;101708.78;5049881;28;20028;-81
2023/09/09 04:59:13;;;;;;;0.63;0.63;;;;;;;20.33;67.42;101701.75;5045839;28;20090;-81
2023/09/09 05:01:39;;;;;;;0.32;0.32;;;;;;;20.29;67.56;101697.47;5050151;28;20025;-81
2023/09/09 05:04:05;;;;;;;0.98;0.90;;;;;;;20.26;67.44;101707.50;5052092;28;20041;-80
2023/09/09 05:06:31;;;;;;;2.17;1.67;;;;;;;20.22;67.40;101711.28;5053583;28;20037;-81
2023/09/09 05:08:57;;;;;;;2.33;1.88;;;;;;;20.17;67.19;101720.44;5054339;28;20079;-81
2023/09/09 05:11:23;;;;;;;0.20;0.20;;;;;;;20.16;67.08;101707.94;5054314;28;20449;-80
2023/09/09 05:13:49;;;;;;;4.28;2.45;;;;;;;20.16;67.39;101717.81;5055522;28;20067;-80
2023/09/09 05:16:15;;;;;;;0.38;0.38;;;;;;;20.14;67.15;101708.97;5050980;28;20048;-81
2023/09/09 05:18:41;;;;;;;0.20;0.20;;;;;;;20.11;67.07;101709.09;5049575;28;20037;-79
2023/09/09 05:21:07;;;;;;;0.13;0.13;;;;;;;20.10;67.07;101707.34;5056513;28;20055;-80
2023/09/09 05:23:35;;;;;;;5.28;1.17;;;;;;;20.08;66.91;101709.25;5054975;28;20150;-81
2023/09/09 05:26:02;;;;;;;0.50;0.50;;;;;;;20.08;66.96;101714.63;5057196;28;20025;-81
2023/09/09 05:28:28;;;;;;;0.47;0.47;;;;;;;20.06;67.24;101711.13;5073243;28;20040;-81
2023/09/09 05:30:54;;;;;;;0.38;0.38;;;;;;;20.07;67.30;101712.88;5067768;28;20047;-82
2023/09/09 05:33:20;;;;;;;0.20;0.20;;;;;;;20.10;67.53;101710.03;5057188;28;20043;-81
2023/09/09 05:35:50;;;;;;;0.75;0.75;;;;;;;20.13;67.16;101712.59;5057027;28;20119;-81
2023/09/09 05:38:16;;;;;;;0.35;0.35;;;;;;;20.13;67.20;101707.22;5056140;28;20032;-81
2023/09/09 05:40:42;;;;;;;0.60;0.60;;;;;;;20.15;67.24;101711.56;5056620;28;20029;-81
2023/09/09 05:43:08;;;;;;;2.15;2.05;;;;;;;20.18;67.71;101724.00;5055443;28;20087;-81
2023/09/09 05:45:34;;;;;;;1.08;1.08;;;;;;;20.21;68.10;101715.78;5054103;28;20039;-83
2023/09/09 05:48:00;;;;;;;0.40;0.40;;;;;;;20.25;67.99;101720.09;5049424;28;20052;-82
2023/09/09 05:50:26;;;;;;;0.25;0.25;;;;;;;20.28;68.40;101722.63;5052645;28;20033;-83
2023/09/09 05:52:52;;;;;;;0.75;0.70;;;;;;;20.32;68.14;101717.97;5057500;28;20029;-82
2023/09/09 05:55:18;;;;;;;0.43;0.43;;;;;;;20.35;68.33;101726.78;5053030;28;20453;-82
2023/09/09 05:57:44;;;;;;;0.28;0.28;;;;;;;20.39;68.71;101729.31;5056328;28;20575;-83
2023/09/09 06:00:11;;;;;;;0.75;0.75;;;;;;;20.43;68.74;101730.94;5046757;28;20033;-83
2023/09/09 06:02:37;;;;;;;0.75;0.75;;;;;;;20.48;68.85;101734.28;5058242;28;20048;-82
2023/09/09 06:05:05;;;;;;;0.17;0.17;;;;;;;20.52;69.13;101735.88;5046818;28;20038;-82
2023/09/09 06:07:31;;;;;;;3.33;1.83;;;;;;;20.57;68.88;101727.56;5052005;28;20502;-83
2023/09/09 06:09:57;;;;;;;1.27;1.27;;;;;;;20.61;68.62;101738.13;5052163;28;20041;-82
2023/09/09 06:12:23;;;;;;;4.18;0.63;;;;;;;20.67;68.60;101740.53;5054884;28;20021;-82
2023/09/09 06:14:49;;;;;;;1.85;1.65;;;;;;;20.71;69.25;101745.75;5056068;28;20025;-82
2023/09/09 06:17:15;;;;;;;2.85;0.95;;;;;;;20.77;68.53;101745.50;5055122;28;20035;-82
2023/09/09 06:19:43;;;;;;;0.35;0.35;;;;;;;20.83;68.24;101739.81;5049407;28;20043;-82
2023/09/09 06:22:09;;;;;;;0.68;0.68;;;;;;;20.88;68.06;101742.28;5052367;28;20041;-82
2023/09/09 06:24:35;;;;;;;1.92;0.82;;;;;;;20.92;67.49;101754.63;5055270;28;20075;-80
2023/09/09 06:27:01;;;;;;;0.20;0.20;;;;;;;20.93;67.21;101751.84;5053620;28;20552;-79
2023/09/09 06:29:29;;;;;;;0.80;0.80;;;;;;;20.96;67.80;101761.59;5047171;28;20028;-80
2023/09/09 06:31:55;;;;;;;0.82;0.82;;;;;;;21.02;68.25;101758.59;5051848;28;20028;-82
2023/09/09 06:34:21;;;;;;;0.35;0.35;;;;;;;21.08;68.14;101758.31;5050421;28;20072;-81
2023/09/09 06:36:47;;;;;;;0.75;0.45;;;;;;;21.16;68.74;101757.94;5047426;28;20029;-81
2023/09/09 06:39:16;;;;;;;0.65;0.57;;;;;;;21.23;68.42;101762.06;5048666;28;20083;-80
2023/09/09 06:41:42;;;;;;;0.70;0.32;;;;;;;21.31;68.49;101765.25;5047811;28;20082;-81
2023/09/09 06:44:08;;;;;;;0.57;0.57;;;;;;;21.37;68.24;101761.38;5055229;28;20056;-81
2023/09/09 06:46:34;;;;;;;0.98;0.98;;;;;;;21.43;68.15;101754.78;5050149;28;20029;-82
2023/09/09 06:49:00;;;;;;;0.43;0.43;;;;;;;21.49;67.74;101765.25;5051687;28;20116;-81
2023/09/09 06:51:26;;;;;;;0.20;0.20;;;;;;;21.54;68.20;101768.59;5048632;28;20482;-80
2023/09/09 06:53:52;;;;;;;1.30;1.17;;;;;;;21.59;68.62;101755.75;5051131;28;20017;-80
2023/09/09 06:56:19;;;;;;;0.10;0.10;;;;;;;21.68;68.64;101753.53;5060372;28;20060;-82
2023/09/09 06:58:45;;;;;;;1.08;1.00;;;;;;;21.77;68.20;101761.16;5051964;28;20028;-82
2023/09/09 07:01:11;;;;;;;0.10;0.10;;;;;;;21.84;68.45;101759.88;5053559;28;20528;-82
2023/09/09 07:03:38;;;;;;;1.40;1.35;;;;;;;21.89;68.33;101760.50;5056373;28;20025;-83
2023/09/09 07:06:04;;;;;;;0.50;0.50;;;;;;;21.96;68.00;101763.75;5052901;28;20052;-81
2023/09/09 07:08:30;;;;;;;2.20;1.48;;;;;;;22.01;68.06;101766.19;5050675;28;20033;-82
2023/09/09 07:10:56;;;;;;;1.50;1.40;;;;;;;22.05;67.69;101776.75;5050573;28;20498;-82
2023/09/09 07:13:23;;;;;;;1.50;1.45;;;;;;;22.08;68.22;101778.41;5055641;28;20497;-82
2023/09/09 07:15:52;;;;;;;0.55;0.55;;;;;;;22.12;68.48;101777.31;5052190;28;20036;-82
2023/09/09 07:18:18;;;;;;;0.45;0.45;;;;;;;22.16;68.25;101770.78;5056176;28;20025;-81
2023/09/09 07:20:46;;;;;;;0.08;0.08;;;;;;;22.22;68.26;101769.53;5049289;28;20025;-80
2023/09/09 07:23:14;;;;;;;0.50;0.50;;;;;;;22.27;67.82;101765.66;5049005;28;20104;-83
2023/09/09 07:25:42;;;;;;;0.35;0.35;;;;;;;22.35;67.83;101767.06;5044729;28;20541;-81
2023/09/09 07:28:09;;;;;;;1.95;1.15;;;;;;;22.41;67.57;101770.31;5048947;28;20033;-81
2023/09/09 07:30:35;;;;;;;4.15;1.25;;;;;;;22.50;67.62;101777.03;5040436;28;20025;-80
2023/09/09 07:33:01;;;;;;;0.35;0.35;;;;;;;22.56;67.49;101771.28;5050610;28;20036;-80
2023/09/09 07:35:27;;;;;;;0.10;0.10;;;;;;;22.66;67.34;101778.91;5041668;28;20025;-80
2023/09/09 07:37:53;;;;;;;0.30;0.30;;;;;;;22.75;67.34;101781.06;5045273;28;20033;-81
2023/09/09 07:40:19;;;;;;;0.50;0.50;;;;;;;22.82;67.25;101774.38;5053574;28;20144;-80
2023/09/09 07:42:45;;;;;;;1.63;1.30;;;;;;;22.90;67.18;101777.50;5050058;28;20025;-81
2023/09/09 07:45:11;;;;;;;0.68;0.68;;;;;;;23.00;67.03;101776.97;5035091;28;20041;-80
2023/09/09 07:47:38;;;;;;;0.30;0.30;;;;;;;23.09;66.94;101768.31;5049134;28;20063;-81
2023/09/09 07:50:05;;;;;;;0.10;0.10;;;;;;;23.18;67.19;101773.22;5052609;28;20033;-80
2023/09/09 07:52:31;;;;;;;0.80;0.43;;;;;;;23.27;66.62;101772.66;5055402;28;20029;-80
2023/09/09 07:54:57;;;;;;;0.47;0.47;;;;;;;23.36;66.72;101778.50;5053506;28;20032;-80
2023/09/09 07:57:23;;;;;;;0.95;0.90;;;;;;;23.47;66.48;101786.00;5056386;28;20052;-79
2023/09/09 07:59:49;;;;;;;0.70;0.65;;;;;;;23.54;66.69;101782.81;5051429;28;20127;-81
2023/09/09 08:02:15;;;;;;;0.70;0.52;;;;;;;23.64;66.48;101771.44;5055484;28;20016;-81
2023/09/09 08:04:42;;;;;;;1.42;1.20;;;;;;;23.73;66.81;101781.69;5056058;28;20033;-81
2023/09/09 08:07:08;;;;;;;1.95;0.50;;;;;;;23.82;66.66;101777.56;5054669;28;20041;-82
2023/09/09 08:09:34;;;;;;;0.10;0.10;;;;;;;23.92;66.18;101780.59;5060143;28;20378;-82
2023/09/09 08:12:00;;;;;;;0.75;0.75;;;;;;;24.00;66.17;101780.97;5054854;28;20142;-83
2023/09/09 08:14:26;;;;;;;1.02;0.98;;;;;;;24.10;65.79;101778.59;5060611;28;20040;-84
2023/09/09 08:16:54;;;;;;;0.45;0.45;;;;;;;24.17;65.86;101786.22;5055876;28;20052;-83
2023/09/09 08:19:21;;;;;;;0.40;0.40;;;;;;;24.26;66.23;101778.50;5057905;28;20108;-83
2023/09/09 08:21:47;;;;;;;1.65;0.38;;;;;;;24.35;66.11;101778.78;5057937;28;20147;-81
2023/09/09 08:24:13;;;;;;;0.35;0.35;;;;;;;24.46;65.70;101777.22;5039495;28;20064;-81
2023/09/09 08:26:39;;;;;;;0.10;0.10;;;;;;;24.54;65.75;101783.03;5052221;28;20025;-83
2023/09/09 08:29:05;;;;;;;0.75;0.75;;;;;;;24.60;65.18;101781.75;5058077;28;20064;-83
2023/09/09 08:31:31;;;;;;;0.85;0.60;;;;;;;24.70;65.31;101788.34;5054747;28;20037;-83
2023/09/09 08:33:57;;;;;;;1.40;1.30;;;;;;;24.78;65.75;101785.13;5051715;28;20036;-83
2023/09/09 08:36:25;;;;;;;0.20;0.20;;;;;;;24.89;65.07;101798.00;5059003;28;20397;-83
2023/09/09 08:38:56;;;;;;;0.30;0.30;;;;;;;24.97;65.07;101793.81;5058683;28;20024;-83
2023/09/09 08:41:37;;;;;;;1.27;1.27;;;;;;;25.13;64.66;101790.91;5046806;28;20021;-82
2023/09/09 08:44:25;;;;;;;0.20;0.20;;;;;;;25.24;64.57;101789.34;5056894;28;20033;-83
2023/09/09 08:46:52;;;;;;;0.35;0.35;;;;;;;25.32;63.91;101795.13;5061447;28;20021;-83
2023/09/09 08:49:23;;;;;;;0.52;0.52;;;;;;;25.44;63.66;101793.47;5058942;28;20029;-84
2023/09/09 08:52:12;;;;;;;1.08;1.08;;;;;;;25.60;63.34;101796.00;5060183;28;20104;-83
2023/09/09 08:54:38;;;;;;;0.10;0.10;;;;;;;25.64;63.13;101800.22;5047358;28;20411;-83
2023/09/09 08:57:05;;;;;;;0.10;0.10;;;;;;;25.74;62.51;101806.75;5045915;28;20026;-83
2023/09/09 08:59:33;;;;;;;0.30;0.30;;;;;;;25.84;62.30;101807.88;5061403;28;20033;-80
2023/09/09 09:02:00;;;;;;;0.43;0.43;;;;;;;25.91;61.41;101807.44;5063317;28;20029;-82
2023/09/09 09:04:27;;;;;;;2.83;0.45;;;;;;;26.02;61.42;101806.66;5057097;28;20028;-83
2023/09/09 09:06:54;;;;;;;0.03;0.03;;;;;;;26.08;60.74;101804.44;5059493;28;20028;-84
2023/09/09 09:09:20;;;;;;;0.32;0.32;;;;;;;26.10;58.68;101807.88;5059010;28;20029;-85
2023/09/09 09:11:46;;;;;;;0.10;0.10;;;;;;;26.15;57.47;101811.16;5058865;28;20417;-84
2023/09/09 09:14:13;;;;;;;0.20;0.20;;;;;;;26.20;55.96;101818.13;5058372;28;20032;-84
2023/09/09 09:16:40;;;;;;;0.10;0.10;;;;;;;26.28;56.00;101815.72;5061341;28;20028;-84
2023/09/09 09:19:15;;;;;;;0.47;0.47;;;;;;;26.37;57.77;101812.34;5054611;28;20110;-84
2023/09/09 09:21:42;;;;;;;0.40;0.20;;;;;;;26.45;57.50;101806.34;5055470;28;20021;-86
2023/09/09 09:24:08;;;;;;;0.10;0.10;;;;;;;26.51;56.43;101814.06;5054335;28;20108;-84
2023/09/09 09:26:34;;;;;;;0.32;0.32;;;;;;;26.62;57.53;101807.84;5058018;28;20055;-85
2023/09/09 09:29:04;;;;;;;0.32;0.32;;;;;;;26.71;57.33;101812.59;5058633;28;20032;-85
2023/09/09 09:31:31;;;;;;;1.25;0.88;;;;;;;26.80;56.55;101811.97;5058227;28;20040;-84
2023/09/09 09:33:59;;;;;;;0.20;0.20;;;;;;;26.89;55.54;101810.41;5056661;28;20033;-84
2023/09/09 09:36:26;;;;;;;0.10;0.10;;;;;;;27.00;56.01;101812.31;5056854;28;20092;-84
2023/09/09 09:38:53;;;;;;;0.10;0.10;;;;;;;27.08;54.46;101814.50;5050439;28;20029;-84
2023/09/09 09:41:21;;;;;;;0.73;0.73;;;;;;;27.16;55.57;101817.47;5056500;28;20040;-84
2023/09/09 09:43:48;;;;;;;0.30;0.30;;;;;;;27.24;54.55;101816.91;5051911;28;20030;-85
2023/09/09 09:48:52;;;;;;;0.60;0.60;;;;;;;27.47;55.20;101811.59;5100811;27;20413;-81
2023/09/09 09:51:18;;;;;;;0.22;0.22;;;;;;;27.55;55.15;101806.44;5092065;28;20488;-85
2023/09/09 09:53:55;;;;;;;0.75;0.63;;;;;;;27.67;54.62;101810.91;5077500;28;20032;-85
2023/09/09 09:56:21;;;;;;;0.15;0.15;;;;;;;27.70;53.65;101815.25;5088259;28;20024;-86
2023/09/09 09:58:49;;;;;;;0.10;0.10;;;;;;;27.77;53.62;101801.03;5086906;28;20139;-85
2023/09/09 10:01:15;;;;;;;0.32;0.32;;;;;;;27.87;53.99;101812.09;5085109;28;20031;-87
2023/09/09 10:03:55;;;;;;;0.85;0.85;;;;;;;28.00;53.21;101812.00;5081756;28;20040;-85
2023/09/09 10:06:26;;;;;;;0.10;0.10;;;;;;;28.07;51.18;101806.94;5095391;28;20156;-86
2023/09/09 10:09:04;;;;;;;0.15;0.15;;;;;;;28.19;52.62;101802.41;5096208;28;20039;-86
2023/09/09 10:11:35;;;;;;;0.35;0.35;;;;;;;28.25;52.59;101804.59;5087093;28;20024;-85
2023/09/09 10:14:24;;;;;;;0.30;0.30;;;;;;;28.38;52.86;101804.50;5091004;28;20060;-85
2023/09/09 10:16:53;;;;;;;0.10;0.10;;;;;;;28.47;53.17;101798.28;5088715;28;20016;-84
2023/09/09 10:19:20;;;;;;;0.20;0.20;;;;;;;28.58;53.25;101794.69;5104019;28;20032;-84
2023/09/09 10:21:50;;;;;;;0.25;0.25;;;;;;;28.66;52.18;101792.22;5110136;28;20093;-84
2023/09/09 10:24:17;;;;;;;0.17;0.17;;;;;;;28.75;51.84;101798.81;5085537;28;22091;-84
2023/09/09 10:26:44;;;;;;;0.40;0.40;;;;;;;28.82;51.04;101799.16;5088296;28;20047;-84
2023/09/09 10:29:11;;;;;;;0.38;0.38;;;;;;;28.95;51.74;101797.13;5087807;28;20042;-84
2023/09/09 10:31:39;;;;;;;0.20;0.20;;;;;;;29.03;51.62;101800.06;5089588;28;20477;-84
2023/09/09 10:34:06;;;;;;;0.20;0.20;;;;;;;29.11;50.78;101796.72;5084043;28;20044;-85
2023/09/09 10:36:36;;;;;;;0.60;0.45;;;;;;;29.18;52.12;101797.06;5082078;28;20028;-87
2023/09/09 10:39:03;;;;;;;0.20;0.20;;;;;;;29.26;50.69;101793.66;5077355;28;20394;-87
2023/09/09 10:41:31;;;;;;;0.43;0.43;;;;;;;29.29;49.46;101793.47;5083055;28;20021;-85
2023/09/09 10:43:58;;;;;;;0.13;0.13;;;;;;;29.42;50.43;101791.41;5092772;28;20123;-85
2023/09/09 10:46:42;;;;;;;1.83;1.60;;;;;;;29.44;48.13;101791.28;5083886;28;20020;-85
2023/09/09 10:49:08;;;;;;;5.25;0.93;;;;;;;29.50;49.45;101790.75;5092943;28;20063;-86
2023/09/09 10:51:50;;;;;;;0.20;0.20;;;;;;;29.57;47.71;101791.94;5091679;28;20500;-86
2023/09/09 10:54:18;;;;;;;0.95;0.95;;;;;;;29.59;49.14;101789.94;5082648;28;20032;-87
2023/09/09 10:56:48;;;;;;;1.08;1.08;;;;;;;29.65;47.91;101789.41;5082791;28;20032;-90
2023/09/09 10:59:20;;;;;;;1.23;1.13;;;;;;;29.87;48.59;101795.75;5076860;28;20028;-88
2023/09/09 11:01:48;;;;;;;2.53;0.98;;;;;;;29.94;47.74;101788.75;5073483;28;20036;-88
2023/09/09 11:04:23;;;;;;;1.40;1.30;;;;;;;30.04;46.86;101782.50;5075340;28;20024;-91
2023/09/09 11:07:03;;;;;;;0.10;0.10;;;;;;;30.17;47.47;101783.16;5077524;28;20021;-89
2023/09/09 11:09:30;;;;;;;0.20;0.20;;;;;;;30.14;47.23;101788.88;5077027;28;20033;-90
2023/09/09 11:11:56;;;;;;;0.10;0.10;;;;;;;30.22;46.94;101791.81;5071641;28;20124;-88
2023/09/09 11:14:30;;;;;;;0.10;0.10;;;;;;;30.38;47.17;101784.94;5064695;28;20025;-90
2023/09/09 11:16:56;;;;;;;0.50;0.50;;;;;;;30.48;47.88;101770.34;5069297;28;20028;-88
2023/09/09 11:19:25;;;;;;;0.15;0.15;;;;;;;30.55;47.26;101775.25;5072320;28;20059;-89
2023/09/09 11:21:52;;;;;;;0.17;0.17;;;;;;;30.59;46.54;101782.16;5071226;28;20036;-89
2023/09/09 11:24:19;;;;;;;4.47;0.65;;;;;;;30.63;47.24;101773.56;5077869;28;20509;-87
2023/09/09 11:26:51;;;;;;;1.15;0.77;;;;;;;30.66;46.37;101775.16;5069405;28;20050;-87
2023/09/09 11:29:19;;;;;;;0.43;0.43;;;;;;;30.58;44.92;101773.13;5076622;28;20485;-88